M I D A S
Marine Information and Data Acquisition System
Tripno 905 of the Zeeleeuw from 2005-05-26 06:19:52 to 2005-05-26 13:04:20
Back to CruiseResearch ActivitiesStationsMapUnderway DataData graphs

EquipmentUnitsComment
TimeDGPSUTC
LatitudeDGPSDM.mWGS84
LongitudeDGPSDM.mWGS84
HeadingGyrodeg 
SOGDGPSknotsSpeed over ground
COGDGPSdegCourse over ground
DepthEcho soundermeters200 kHz
Missing or incorrect values are displayed as -999
Navigation data collected by the RV Zeeleeuw from 2005-05-26 06:20:44 to 2005-05-26 13:17:14
                                                                                    Next 1000 lines
Time Latitude Longitude Heading SOG COG Depth
2005-05-26 06:20:54 51°13.598 2°56.103 114 0.4 282 5.8
2005-05-26 06:20:58 51°13.599 2°56.1 114 1.6 295 5.8
2005-05-26 06:21:04 51°13.601 2°56.096 114 1.8 293 5.9
2005-05-26 06:21:08 51°13.602 2°56.091 114.5 2.1 294 6
2005-05-26 06:21:14 51°13.603 2°56.086 114.8 2.1 294 -999
2005-05-26 06:21:20 51°13.605 2°56.079 115.1 2.1 294 -999
2005-05-26 06:21:24 51°13.607 2°56.073 115.1 2.1 294 -999
2005-05-26 06:21:29 51°13.609 2°56.067 115.1 3.2 296 -999
2005-05-26 06:21:34 51°13.611 2°56.061 115.2 3.3 296 -999
2005-05-26 06:21:39 51°13.613 2°56.054 115.2 3.3 296 -999
2005-05-26 06:21:44 51°13.615 2°56.046 115 3.3 296 -999
2005-05-26 06:21:49 51°13.617 2°56.04 114.5 3.7 295 -999
2005-05-26 06:21:54 51°13.619 2°56.032 113.7 3.7 295 -999
2005-05-26 06:21:59 51°13.622 2°56.023 112.5 3.9 293 -999
2005-05-26 06:22:04 51°13.624 2°56.015 111.7 3.9 292 -999
2005-05-26 06:22:09 51°13.625 2°56.008 111 3.6 290 -999
2005-05-26 06:22:14 51°13.627 2°56.002 109.9 3.4 290 -999
2005-05-26 06:22:19 51°13.628 2°55.997 109.5 3.4 290 -999
2005-05-26 06:22:24 51°13.629 2°55.994 109.4 2.4 291 -999
2005-05-26 06:22:30 51°13.63 2°55.992 109.9 1.7 294 -999
2005-05-26 06:22:34 51°13.63 2°55.991 111 1.7 294 -999
2005-05-26 06:22:39 51°13.631 2°55.99 112.7 1.7 294 8.5
2005-05-26 06:22:44 51°13.632 2°55.987 114.4 1.7 294 9
2005-05-26 06:22:49 51°13.633 2°55.984 114.9 1.5 302 9
2005-05-26 06:22:54 51°13.634 2°55.98 115.1 2 298 9
2005-05-26 06:22:59 51°13.636 2°55.974 115.1 2.3 298 9
2005-05-26 06:23:04 51°13.638 2°55.969 115.1 2.6 295 -999
2005-05-26 06:23:09 51°13.639 2°55.963 115 2.9 294 -999
2005-05-26 06:23:14 51°13.641 2°55.956 114.9 3.1 294 -999
2005-05-26 06:23:20 51°13.643 2°55.948 115.4 3.2 294 -999
2005-05-26 06:23:24 51°13.645 2°55.942 115.8 3.4 294 -999
2005-05-26 06:23:29 51°13.647 2°55.934 116.8 3.4 294 -999
2005-05-26 06:23:34 51°13.649 2°55.927 118 3.9 295 -999
2005-05-26 06:23:40 51°13.653 2°55.917 118.7 3.9 295 -999
2005-05-26 06:23:44 51°13.655 2°55.909 118.9 4.3 295 -999
2005-05-26 06:23:49 51°13.658 2°55.9 118.8 4.5 295 -999
2005-05-26 06:23:54 51°13.66 2°55.891 118.6 4.7 295 -999
2005-05-26 06:23:59 51°13.663 2°55.88 118.4 4.8 295 -999
2005-05-26 06:24:04 51°13.666 2°55.871 118.6 4.9 295 -999
2005-05-26 06:24:09 51°13.669 2°55.86 119 5 296 -999
2005-05-26 06:24:14 51°13.672 2°55.851 119.7 5.1 297 -999
2005-05-26 06:24:19 51°13.676 2°55.84 120.4 5.1 297 -999
2005-05-26 06:24:24 51°13.68 2°55.83 121.2 5.1 297 -999
2005-05-26 06:24:29 51°13.683 2°55.82 122.5 5.4 299 -999
2005-05-26 06:24:34 51°13.687 2°55.81 124 5.4 299 -999
2005-05-26 06:24:39 51°13.692 2°55.799 125.6 5.4 299 -999
2005-05-26 06:24:44 51°13.696 2°55.788 127.3 5.4 299 -999
2005-05-26 06:24:49 51°13.701 2°55.779 129.1 5.7 305 -999
2005-05-26 06:24:54 51°13.706 2°55.769 131.5 5.7 305 -999
2005-05-26 06:24:59 51°13.711 2°55.758 133.5 5.7 308 -999
2005-05-26 06:25:04 51°13.716 2°55.749 135.3 5.7 308 -999
2005-05-26 06:25:09 51°13.722 2°55.74 137.6 5.8 312 -999
2005-05-26 06:25:14 51°13.727 2°55.731 139.6 5.8 312 -999
2005-05-26 06:25:19 51°13.734 2°55.721 141.6 5.9 316 -999
2005-05-26 06:25:24 51°13.74 2°55.712 143.5 6 317 -999
2005-05-26 06:25:29 51°13.746 2°55.705 145.2 6.1 320 -999
2005-05-26 06:25:34 51°13.752 2°55.696 147.1 6.2 321 -999
2005-05-26 06:25:39 51°13.76 2°55.688 149.4 6.2 323 -999
2005-05-26 06:25:44 51°13.768 2°55.68 151 6.2 325 -999
2005-05-26 06:25:49 51°13.775 2°55.673 153.1 6.2 325 -999
2005-05-26 06:25:54 51°13.782 2°55.667 155.6 6.3 330 -999
2005-05-26 06:26:00 51°13.791 2°55.66 158.2 6.3 331 -999
2005-05-26 06:26:04 51°13.799 2°55.656 161.1 6.3 335 -999
2005-05-26 06:26:09 51°13.807 2°55.651 164.1 6.2 339 -999
2005-05-26 06:26:14 51°13.814 2°55.647 167.1 6.2 341 -999
2005-05-26 06:26:19 51°13.823 2°55.644 169.9 6.2 343 -999
2005-05-26 06:26:24 51°13.832 2°55.641 172.8 6.2 346 -999
2005-05-26 06:26:29 51°13.84 2°55.639 176.3 6.2 349 -999
2005-05-26 06:26:34 51°13.848 2°55.638 178.5 6.2 352 -999
2005-05-26 06:26:39 51°13.858 2°55.637 181.5 6.2 355 -999
2005-05-26 06:26:44 51°13.866 2°55.637 184.6 6.2 355 -999
2005-05-26 06:26:49 51°13.874 2°55.637 187.7 6 2 -999
2005-05-26 06:26:54 51°13.881 2°55.639 191.5 5.9 5 -999
2005-05-26 06:26:59 51°13.89 2°55.641 194.1 5.9 5 -999
2005-05-26 06:27:04 51°13.897 2°55.643 197.1 5.9 5 -999
2005-05-26 06:27:10 51°13.905 2°55.646 199.4 5.3 12 -999
2005-05-26 06:27:14 51°13.91 2°55.648 201.4 5.3 12 -999
2005-05-26 06:27:19 51°13.916 2°55.651 203.2 4.8 14 7.7
2005-05-26 06:27:24 51°13.922 2°55.654 204.7 3.4 16 -999
2005-05-26 06:27:28 51°13.926 2°55.657 206.2 3.9 19 5.1
2005-05-26 06:27:34 51°13.93 2°55.659 208.4 3.6 20 6.7
2005-05-26 06:27:39 51°13.932 2°55.66 211.4 3 20 5.1
2005-05-26 06:27:43 51°13.934 2°55.661 215.9 1.6 9 8.3
2005-05-26 06:27:48 51°13.935 2°55.66 220.5 0.9 354 8.3
2005-05-26 06:27:54 51°13.934 2°55.657 225.1 0.7 297 8.4
2005-05-26 06:27:59 51°13.933 2°55.653 232.3 0.7 297 8.5
2005-05-26 06:28:04 51°13.933 2°55.647 240.9 0.7 297 8.5
2005-05-26 06:28:08 51°13.932 2°55.64 249.9 2.9 262 8.5
2005-05-26 06:28:14 51°13.933 2°55.631 258.8 2.9 262 8.6
2005-05-26 06:28:18 51°13.934 2°55.622 267.6 4.1 278 8.7
2005-05-26 06:28:24 51°13.936 2°55.611 276.5 4.6 285 8.8
2005-05-26 06:28:29 51°13.94 2°55.601 285.2 4.9 293 8.8
2005-05-26 06:28:34 51°13.944 2°55.592 294.1 5.2 299 -999
2005-05-26 06:28:39 51°13.95 2°55.582 305.5 5.2 299 8.8
2005-05-26 06:28:44 51°13.955 2°55.574 313.4 5.4 314 8.8
2005-05-26 06:28:49 51°13.961 2°55.565 317.3 5.5 316 8.8
2005-05-26 06:28:54 51°13.967 2°55.557 319.3 5.9 319 8.6
2005-05-26 06:28:58 51°13.973 2°55.551 322.2 5.9 319 8.7
2005-05-26 06:29:04 51°13.981 2°55.54 323.9 6.4 323 8.7
2005-05-26 06:29:09 51°13.989 2°55.532 326 6.5 324 8.7
2005-05-26 06:29:14 51°13.997 2°55.524 328.1 6.7 326 8.7
2005-05-26 06:29:19 51°14.005 2°55.517 330.3 6.7 328 8.7
2005-05-26 06:29:23 51°14.012 2°55.51 332.4 6.7 328 8.6
2005-05-26 06:29:28 51°14.021 2°55.503 334.5 7 332 8.5
2005-05-26 06:29:34 51°14.031 2°55.495 335.9 7 332 8.5
2005-05-26 06:29:39 51°14.04 2°55.487 336.1 7 332 8.6
2005-05-26 06:29:44 51°14.048 2°55.48 336 7.2 332 8.9
2005-05-26 06:29:49 51°14.058 2°55.473 336 7.3 332 8.7
2005-05-26 06:29:54 51°14.067 2°55.465 336.9 7.4 334 8.9
2005-05-26 06:29:59 51°14.077 2°55.458 338 7.7 335 9
2005-05-26 06:30:04 51°14.087 2°55.45 339 7.7 335 9
2005-05-26 06:30:09 51°14.098 2°55.443 339.2 7.7 335 8.9
2005-05-26 06:30:14 51°14.108 2°55.434 339.1 7.7 335 9.1
2005-05-26 06:30:18 51°14.117 2°55.428 338.6 8.5 334 9.2
2005-05-26 06:30:24 51°14.13 2°55.417 338 8.6 334 9.2
2005-05-26 06:30:29 51°14.141 2°55.408 337.2 8.8 333 9.2
2005-05-26 06:30:34 51°14.152 2°55.399 336.6 8.8 333 9.2
2005-05-26 06:30:38 51°14.161 2°55.391 336.2 9.1 332 9.2
2005-05-26 06:30:44 51°14.174 2°55.38 335.9 9.1 332 9.2
2005-05-26 06:30:48 51°14.184 2°55.371 335.8 9.2 332 9.3
2005-05-26 06:30:53 51°14.194 2°55.362 335.4 9.2 331 9.3
2005-05-26 06:30:59 51°14.207 2°55.349 334.5 9.2 331 9.4
2005-05-26 06:31:04 51°14.219 2°55.337 333.1 9.2 331 10.3
2005-05-26 06:31:09 51°14.229 2°55.326 331.6 9.4 327 9.6
2005-05-26 06:31:13 51°14.239 2°55.316 330.5 9.4 326 9.9
2005-05-26 06:31:19 51°14.25 2°55.302 329.5 9.4 325 9.1
2005-05-26 06:31:24 51°14.261 2°55.29 328.7 9.5 324 9
2005-05-26 06:31:29 51°14.271 2°55.276 327.8 9.5 322 8.7
2005-05-26 06:31:34 51°14.281 2°55.262 326 9.5 321 8.6
2005-05-26 06:31:38 51°14.289 2°55.251 323.6 9.5 318 8.6
2005-05-26 06:31:44 51°14.3 2°55.233 321.3 9.5 318 8.5
2005-05-26 06:31:48 51°14.308 2°55.219 319.3 9.5 318 8.4
2005-05-26 06:31:54 51°14.318 2°55.201 317.2 9.5 318 8.3
2005-05-26 06:31:59 51°14.327 2°55.182 315.3 9.8 311 8.2
2005-05-26 06:32:04 51°14.336 2°55.166 313.8 10.2 309 8.9
2005-05-26 06:32:08 51°14.344 2°55.15 313.5 10.4 309 8.7
2005-05-26 06:32:14 51°14.354 2°55.13 313.7 10.7 309 8.6
2005-05-26 06:32:19 51°14.363 2°55.11 313.3 10.7 309 8.8
2005-05-26 06:32:24 51°14.372 2°55.091 312 10.9 307 9.1
2005-05-26 06:32:28 51°14.38 2°55.072 309.8 11 305 9.1
2005-05-26 06:32:34 51°14.39 2°55.049 308.4 11 305 9.4
2005-05-26 06:32:38 51°14.397 2°55.032 308 11.5 304 9.3
2005-05-26 06:32:44 51°14.407 2°55.007 307.9 11.5 304 9.3
2005-05-26 06:32:49 51°14.416 2°54.985 308.3 11.6 304 9.3
2005-05-26 06:32:54 51°14.426 2°54.964 308.9 11.7 305 9.4
2005-05-26 06:32:59 51°14.436 2°54.943 309.9 11.8 305 9.5
2005-05-26 06:33:04 51°14.445 2°54.923 311.7 11.8 307 9.4
2005-05-26 06:33:09 51°14.456 2°54.902 312.8 11.8 308 9.4
2005-05-26 06:33:14 51°14.466 2°54.882 315.5 11.8 308 9.4
2005-05-26 06:33:19 51°14.477 2°54.863 317.1 11.8 310 9.3
2005-05-26 06:33:24 51°14.488 2°54.843 318.6 11.8 310 9.2
2005-05-26 06:33:28 51°14.498 2°54.826 320.4 12 311 9.2
2005-05-26 06:33:34 51°14.511 2°54.806 322.7 12 314 9.1
2005-05-26 06:33:39 51°14.524 2°54.787 324.9 12 315 9.1
2005-05-26 06:33:44 51°14.537 2°54.769 326.5 12 315 9
2005-05-26 06:33:49 51°14.55 2°54.75 328.2 12.6 319 9
2005-05-26 06:33:54 51°14.564 2°54.732 329.4 12.9 320 8.9
2005-05-26 06:33:59 51°14.578 2°54.714 330 12.9 320 8.8
2005-05-26 06:34:04 51°14.593 2°54.696 330.6 12.9 320 8.7
2005-05-26 06:34:08 51°14.606 2°54.679 331.2 13.2 321 8.7
2005-05-26 06:34:14 51°14.622 2°54.659 331.3 13.2 321 8.6
2005-05-26 06:34:19 51°14.636 2°54.641 331.4 13.3 322 8.5
2005-05-26 06:34:23 51°14.649 2°54.624 331.4 13.4 321 8.5
2005-05-26 06:34:28 51°14.663 2°54.604 330.9 13.4 321 8.5
2005-05-26 06:34:34 51°14.679 2°54.583 330.5 13.5 320 8.5
2005-05-26 06:34:39 51°14.695 2°54.562 330.2 13.6 320 8.5
2005-05-26 06:34:44 51°14.708 2°54.544 329.3 13.7 319 8.5
2005-05-26 06:34:49 51°14.723 2°54.524 329 13.8 319 8.5
2005-05-26 06:34:54 51°14.737 2°54.504 328.7 13.7 319 8.6
2005-05-26 06:34:59 51°14.752 2°54.484 328.7 13.8 320 8.5
2005-05-26 06:35:04 51°14.766 2°54.465 328.7 13.8 320 8.4
2005-05-26 06:35:08 51°14.78 2°54.448 328.9 13.8 320 8.4
2005-05-26 06:35:14 51°14.796 2°54.427 329.7 13.8 320 8.4
2005-05-26 06:35:19 51°14.812 2°54.409 330.6 13.8 320 8.4
2005-05-26 06:35:24 51°14.829 2°54.389 331.4 13.8 320 8.3
2005-05-26 06:35:28 51°14.841 2°54.375 332.2 13.8 324 8.4
2005-05-26 06:35:34 51°14.859 2°54.356 333.1 13.7 325 8.3
2005-05-26 06:35:39 51°14.874 2°54.339 333.8 13.7 326 8.2
2005-05-26 06:35:44 51°14.89 2°54.323 334.4 13.7 326 8
2005-05-26 06:35:49 51°14.905 2°54.307 334.9 13.5 327 7.9
2005-05-26 06:35:54 51°14.921 2°54.291 335.3 13.4 327 7.8
2005-05-26 06:35:59 51°14.936 2°54.275 335.9 13.4 327 5.7
2005-05-26 06:36:04 51°14.952 2°54.259 336.1 13.4 327 7.6
2005-05-26 06:36:09 51°14.967 2°54.244 336.1 13.2 328 5.5
2005-05-26 06:36:14 51°14.983 2°54.228 336.2 13.2 328 7.5
2005-05-26 06:36:19 51°14.998 2°54.212 335.9 13.2 328 7.4
2005-05-26 06:36:24 51°15.013 2°54.196 335.3 13.2 327 7.4
2005-05-26 06:36:29 51°15.028 2°54.18 334.9 13.2 327 7.4
2005-05-26 06:36:34 51°15.044 2°54.165 334.8 13.2 327 7.4
2005-05-26 06:36:39 51°15.059 2°54.149 335.2 13.2 327 5.6
2005-05-26 06:36:44 51°15.075 2°54.134 335.6 13.2 327 5.6
2005-05-26 06:36:48 51°15.089 2°54.121 336.9 13.2 329 7.5
2005-05-26 06:36:54 51°15.106 2°54.103 336.8 13.3 327 7.6
2005-05-26 06:36:59 51°15.121 2°54.086 335.9 13.3 327 7.6
2005-05-26 06:37:04 51°15.136 2°54.068 334.2 13.3 327 7.6
2005-05-26 06:37:09 51°15.15 2°54.05 332.4 13.4 323 7.7
2005-05-26 06:37:14 51°15.165 2°54.031 330.6 13.4 323 7.8
2005-05-26 06:37:18 51°15.177 2°54.016 329 13.4 323 7.8
2005-05-26 06:37:24 51°15.194 2°53.993 328.8 13.6 322 7.9
2005-05-26 06:37:28 51°15.208 2°53.978 329.5 13.6 322 8
2005-05-26 06:37:34 51°15.225 2°53.959 330.6 13.6 324 8
2005-05-26 06:37:39 51°15.241 2°53.943 332.4 13.7 327 8.1
2005-05-26 06:37:44 51°15.258 2°53.929 335.1 13.7 329 8.1
2005-05-26 06:37:49 51°15.275 2°53.916 337.5 13.7 332 8.2
2005-05-26 06:37:54 51°15.292 2°53.903 340 13.6 334 8.3
2005-05-26 06:37:59 51°15.309 2°53.89 342.1 13.6 335 8.4
2005-05-26 06:38:04 51°15.327 2°53.878 343.2 13.7 336 8.5
2005-05-26 06:38:08 51°15.342 2°53.867 344 13.7 336 8.3
2005-05-26 06:38:14 51°15.361 2°53.852 343.7 13.7 335 8.6
2005-05-26 06:38:19 51°15.378 2°53.838 342.7 13.8 334 8.6
2005-05-26 06:38:23 51°15.393 2°53.825 341.4 13.9 332 8.7
2005-05-26 06:38:29 51°15.412 2°53.807 339 13.9 332 8.8
2005-05-26 06:38:34 51°15.429 2°53.791 337.6 13.9 332 8.8
2005-05-26 06:38:39 51°15.445 2°53.775 337 13.9 332 8.9
2005-05-26 06:38:44 51°15.462 2°53.758 336.1 14.2 329 8.9
2005-05-26 06:38:48 51°15.477 2°53.744 335.7 14.2 329 9
2005-05-26 06:38:53 51°15.494 2°53.728 335.7 14.2 328 9.1
2005-05-26 06:38:59 51°15.512 2°53.71 336 14.2 328 9.1
2005-05-26 06:39:04 51°15.529 2°53.695 336.8 14.1 330 9.2
2005-05-26 06:39:09 51°15.546 2°53.679 337.6 14.2 331 9.2
2005-05-26 06:39:14 51°15.564 2°53.664 338.2 14.2 331 9.3
2005-05-26 06:39:18 51°15.577 2°53.652 338.7 14.1 330 9.4
2005-05-26 06:39:24 51°15.597 2°53.633 338.7 14.1 330 9.4
2005-05-26 06:39:29 51°15.614 2°53.617 338.4 14.1 329 9.4
2005-05-26 06:39:34 51°15.631 2°53.601 338 14.1 329 9.5
2005-05-26 06:39:38 51°15.645 2°53.587 337.4 14.2 328 9.5
2005-05-26 06:39:44 51°15.664 2°53.567 337 14.1 328 9.6
2005-05-26 06:39:48 51°15.678 2°53.552 336.8 14.1 328 9.7
2005-05-26 06:39:54 51°15.697 2°53.534 336.6 14.1 328 9.7
2005-05-26 06:39:59 51°15.713 2°53.518 336.6 14 328 9.7
2005-05-26 06:40:04 51°15.73 2°53.501 336.6 14 328 9.8
2005-05-26 06:40:08 51°15.744 2°53.487 336.8 14 329 9.8
2005-05-26 06:40:13 51°15.761 2°53.471 337.5 13.9 329 9.9
2005-05-26 06:40:19 51°15.78 2°53.453 337.9 14 330 9.9
2005-05-26 06:40:23 51°15.795 2°53.439 338.3 14 330 10
2005-05-26 06:40:29 51°15.814 2°53.423 338.7 14 330 10
2005-05-26 06:40:34 51°15.831 2°53.407 338.8 14 330 10
2005-05-26 06:40:39 51°15.848 2°53.391 338.5 14 330 10.1
2005-05-26 06:40:44 51°15.864 2°53.375 338.2 14 329 10.1
2005-05-26 06:40:48 51°15.879 2°53.36 337.7 14 328 10.1
2005-05-26 06:40:54 51°15.897 2°53.342 337.5 14 328 10.2
2005-05-26 06:40:59 51°15.914 2°53.327 337.4 14 328 10.2
2005-05-26 06:41:04 51°15.931 2°53.311 337.7 13.9 329 10.2
2005-05-26 06:41:08 51°15.945 2°53.298 338.7 14 331 10.2
2005-05-26 06:41:14 51°15.964 2°53.282 339.3 13.9 331 10.2
2005-05-26 06:41:19 51°15.981 2°53.267 339.7 13.9 331 10.3
2005-05-26 06:41:24 51°15.998 2°53.253 340.4 13.9 331 10.3
2005-05-26 06:41:29 51°16.015 2°53.238 340.6 13.8 332 10.3
2005-05-26 06:41:34 51°16.032 2°53.223 340.6 14 332 10.4
2005-05-26 06:41:39 51°16.05 2°53.207 340.3 14 332 10.4
2005-05-26 06:41:44 51°16.066 2°53.194 340 13.9 331 10.6
2005-05-26 06:41:49 51°16.083 2°53.179 340.1 13.9 331 10.5
2005-05-26 06:41:54 51°16.099 2°53.164 340.1 13.9 331 10.6
2005-05-26 06:41:59 51°16.116 2°53.15 340.1 13.9 331 10.5
2005-05-26 06:42:04 51°16.135 2°53.134 340.1 13.9 331 10.5
2005-05-26 06:42:09 51°16.15 2°53.122 340.8 13.8 333 10.6
2005-05-26 06:42:13 51°16.167 2°53.11 341.8 13.9 333 10.5
2005-05-26 06:42:19 51°16.186 2°53.095 342.4 14 334 10.6
2005-05-26 06:42:24 51°16.204 2°53.082 343.2 13.9 335 10.6
2005-05-26 06:42:29 51°16.221 2°53.069 343.6 13.9 335 10.7
2005-05-26 06:42:34 51°16.239 2°53.056 344 14 335 10.7
2005-05-26 06:42:39 51°16.256 2°53.043 344 13.9 335 10.7
2005-05-26 06:42:43 51°16.272 2°53.031 343.7 13.8 335 10.8
2005-05-26 06:42:48 51°16.29 2°53.017 343.6 13.8 335 10.9
2005-05-26 06:42:54 51°16.31 2°53.002 343.6 13.8 335 10.8
2005-05-26 06:42:59 51°16.327 2°52.988 343.6 14 335 10.9
2005-05-26 06:43:04 51°16.345 2°52.975 343.5 13.9 335 10.9
2005-05-26 06:43:09 51°16.362 2°52.962 343.5 13.9 335 10.9
2005-05-26 06:43:14 51°16.38 2°52.948 343.6 13.8 335 10.7
2005-05-26 06:43:19 51°16.398 2°52.935 343.6 13.8 335 10.8
2005-05-26 06:43:24 51°16.416 2°52.922 343.6 14.1 335 10.8
2005-05-26 06:43:28 51°16.432 2°52.911 343.6 14.1 335 10.8
2005-05-26 06:43:34 51°16.452 2°52.896 343.7 14.1 335 10.8
2005-05-26 06:43:38 51°16.466 2°52.886 343.9 13.9 335 10.7
2005-05-26 06:43:44 51°16.487 2°52.871 344 13.9 335 10.7
2005-05-26 06:43:49 51°16.505 2°52.858 344 14 335 10.6
2005-05-26 06:43:54 51°16.522 2°52.845 344 13.9 336 10.6
2005-05-26 06:43:59 51°16.54 2°52.832 344 13.9 335 10.5
2005-05-26 06:44:04 51°16.558 2°52.819 343.7 13.9 335 10.4
2005-05-26 06:44:09 51°16.576 2°52.806 343.4 14 335 10.3
2005-05-26 06:44:14 51°16.594 2°52.793 343.2 14 335 10.2
2005-05-26 06:44:19 51°16.613 2°52.778 342.8 14 334 10.1
2005-05-26 06:44:24 51°16.629 2°52.766 342.6 14 334 10.1
2005-05-26 06:44:29 51°16.646 2°52.753 342.8 14 335 9.9
2005-05-26 06:44:33 51°16.66 2°52.743 343.2 13.9 335 9.8
2005-05-26 06:44:37 51°16.675 2°52.731 343.3 13.8 335 9.5
2005-05-26 06:44:44 51°16.698 2°52.715 343.3 13.9 335 9.4
2005-05-26 06:44:49 51°16.717 2°52.701 343.3 13.9 335 9.3
2005-05-26 06:44:54 51°16.733 2°52.689 343.2 13.7 335 9.2
2005-05-26 06:44:59 51°16.75 2°52.676 343.2 13.7 335 8.8
2005-05-26 06:45:04 51°16.767 2°52.663 343.2 13.8 335 8.5
2005-05-26 06:45:09 51°16.784 2°52.651 343.1 13.7 335 8.5
2005-05-26 06:45:13 51°16.798 2°52.641 342.9 13.7 335 8.6
2005-05-26 06:45:19 51°16.818 2°52.626 343.1 13.7 335 8.6
2005-05-26 06:45:24 51°16.836 2°52.613 343.1 13.7 335 8.4
2005-05-26 06:45:28 51°16.851 2°52.601 342.9 13.8 335 8.3
2005-05-26 06:45:34 51°16.869 2°52.587 342.5 13.8 335 8.3
2005-05-26 06:45:39 51°16.888 2°52.572 341.9 13.8 335 8.4
2005-05-26 06:45:44 51°16.903 2°52.56 341.6 13.6 333 8.5
2005-05-26 06:45:49 51°16.92 2°52.546 341.1 13.7 333 8.6
2005-05-26 06:45:54 51°16.937 2°52.531 340.8 13.7 333 8.7
2005-05-26 06:45:59 51°16.953 2°52.517 340.6 13.8 333 8.6
2005-05-26 06:46:04 51°16.971 2°52.504 340.8 13.8 333 8.4
2005-05-26 06:46:09 51°16.988 2°52.491 341.5 13.8 333 8.5
2005-05-26 06:46:14 51°17.005 2°52.479 342.2 13.8 333 8.3
2005-05-26 06:46:18 51°17.019 2°52.47 344.3 13.6 337 8.3
2005-05-26 06:46:24 51°17.04 2°52.457 345.4 13.5 337 8.3
2005-05-26 06:46:29 51°17.057 2°52.447 346.7 13.5 339 8.4
2005-05-26 06:46:34 51°17.075 2°52.436 347.5 13.5 339 8.4
2005-05-26 06:46:38 51°17.089 2°52.427 347.7 13.6 339 8.5
2005-05-26 06:46:44 51°17.11 2°52.413 347.3 13.7 338 8.6
2005-05-26 06:46:48 51°17.125 2°52.401 346 13.7 338 8.6
2005-05-26 06:46:54 51°17.144 2°52.386 344 13.7 338 8.6
2005-05-26 06:46:59 51°17.161 2°52.372 342.2 13.7 333 8.7
2005-05-26 06:47:04 51°17.178 2°52.357 340.7 13.8 332 8.7
2005-05-26 06:47:08 51°17.193 2°52.344 339.4 13.8 331 8.7
2005-05-26 06:47:14 51°17.212 2°52.327 338.6 13.9 331 8.9
2005-05-26 06:47:19 51°17.228 2°52.312 338.2 13.9 330 9
2005-05-26 06:47:23 51°17.243 2°52.298 338.1 13.9 331 9
2005-05-26 06:47:29 51°17.262 2°52.282 338.2 13.9 331 9.1
2005-05-26 06:47:34 51°17.28 2°52.268 339 13.9 331 9.1
2005-05-26 06:47:39 51°17.297 2°52.254 339.7 14 333 9.1
2005-05-26 06:47:44 51°17.314 2°52.24 340.6 14 333 9.2
2005-05-26 06:47:49 51°17.331 2°52.227 341.3 14 333 9
2005-05-26 06:47:54 51°17.349 2°52.214 341.9 13.9 335 9.2
2005-05-26 06:47:59 51°17.366 2°52.201 342.2 13.9 334 9.2
2005-05-26 06:48:04 51°17.384 2°52.187 342.2 13.9 334 9.2
2005-05-26 06:48:09 51°17.401 2°52.173 341.9 13.9 334 9.2
2005-05-26 06:48:14 51°17.418 2°52.158 340.9 14 332 9.2
2005-05-26 06:48:19 51°17.434 2°52.143 339.5 13.9 331 9.1
2005-05-26 06:48:24 51°17.451 2°52.127 338.1 13.9 331 9.3
2005-05-26 06:48:28 51°17.466 2°52.113 337 13.9 331 9.1
2005-05-26 06:48:34 51°17.484 2°52.095 336.1 13.9 331 9.3
2005-05-26 06:48:39 51°17.502 2°52.077 335.5 14 328 9.3
2005-05-26 06:48:44 51°17.516 2°52.062 335.3 13.9 328 9.1
2005-05-26 06:48:49 51°17.533 2°52.046 335.3 14 329 9.1
2005-05-26 06:48:54 51°17.549 2°52.031 335.9 14 329 9.2
2005-05-26 06:48:59 51°17.565 2°52.016 336.2 13.9 329 9.3
2005-05-26 06:49:04 51°17.582 2°52.001 336.9 13.9 329 9.1
2005-05-26 06:49:08 51°17.597 2°51.988 337.6 13.9 330 9.1
2005-05-26 06:49:14 51°17.615 2°51.971 337.9 13.9 330 9.2
2005-05-26 06:49:19 51°17.632 2°51.956 338.1 13.9 330 9
2005-05-26 06:49:24 51°17.649 2°51.938 338.2 13.9 330 9.1
2005-05-26 06:49:28 51°17.662 2°51.925 336.6 13.8 327 9
2005-05-26 06:49:34 51°17.679 2°51.906 335.4 13.8 327 9
2005-05-26 06:49:39 51°17.695 2°51.887 333.2 13.8 327 8.9
2005-05-26 06:49:44 51°17.71 2°51.869 331.9 13.8 327 9
2005-05-26 06:49:48 51°17.724 2°51.852 331 13.8 327 8.9
2005-05-26 06:49:54 51°17.741 2°51.832 330.5 13.8 327 8.9
2005-05-26 06:49:59 51°17.758 2°51.811 330.1 13.9 323 8.9
2005-05-26 06:50:04 51°17.771 2°51.794 330 13.9 322 8.8
2005-05-26 06:50:09 51°17.786 2°51.775 330.1 13.9 322 8.8
2005-05-26 06:50:14 51°17.801 2°51.756 330.3 13.9 322 8.8
2005-05-26 06:50:19 51°17.818 2°51.735 330.5 13.9 322 8.8
2005-05-26 06:50:24 51°17.831 2°51.718 330.6 14 323 8.9
2005-05-26 06:50:29 51°17.846 2°51.7 330.7 14 323 8.9
2005-05-26 06:50:34 51°17.861 2°51.681 330.9 14 323 8.9
2005-05-26 06:50:39 51°17.876 2°51.661 330.1 14 323 8.9
2005-05-26 06:50:44 51°17.891 2°51.64 328.7 13.9 320 9
2005-05-26 06:50:48 51°17.904 2°51.622 327.4 13.9 320 9
2005-05-26 06:50:54 51°17.92 2°51.598 326.8 14.1 318 9.1
2005-05-26 06:50:58 51°17.931 2°51.581 326.2 14.1 318 9.1
2005-05-26 06:51:04 51°17.949 2°51.556 325.7 14.2 317 9.2
2005-05-26 06:51:09 51°17.963 2°51.535 325.5 14.2 317 9.3
2005-05-26 06:51:13 51°17.976 2°51.516 325.5 14.2 318 9.4
2005-05-26 06:51:18 51°17.989 2°51.497 325.8 14.2 318 9.4
2005-05-26 06:51:24 51°18.007 2°51.472 326.5 14.2 319 9.5
2005-05-26 06:51:28 51°18.021 2°51.454 327 14.2 319 9.6
2005-05-26 06:51:34 51°18.037 2°51.431 327.5 14.3 319 9.7
2005-05-26 06:51:39 51°18.052 2°51.41 327.8 14.1 319 9.9
2005-05-26 06:51:44 51°18.067 2°51.389 327.8 14.1 319 10
2005-05-26 06:51:49 51°18.083 2°51.366 327.5 14.4 319 10.1
2005-05-26 06:51:54 51°18.096 2°51.347 327.1 14.3 318 10.2
2005-05-26 06:51:58 51°18.108 2°51.33 326.8 14.3 318 10.3
2005-05-26 06:52:04 51°18.126 2°51.304 326.5 14.4 318 10.4
2005-05-26 06:52:08 51°18.139 2°51.284 326.2 14.4 318 10.6
2005-05-26 06:52:14 51°18.155 2°51.261 326.1 14.4 318 10.7
2005-05-26 06:52:19 51°18.171 2°51.237 326.1 14.4 318 10.9
2005-05-26 06:52:24 51°18.184 2°51.218 326.4 14.3 318 11
2005-05-26 06:52:29 51°18.198 2°51.194 325.2 14.4 312 11.1
2005-05-26 06:52:34 51°18.211 2°51.169 321.5 14.4 312 11.2
2005-05-26 06:52:38 51°18.221 2°51.149 319.1 14.5 310 11.2
2005-05-26 06:52:44 51°18.236 2°51.119 317.1 14.5 309 11.3
2005-05-26 06:52:49 51°18.249 2°51.093 315.7 14.5 308 11.5
2005-05-26 06:52:54 51°18.26 2°51.068 315 14.5 307 11.5
2005-05-26 06:52:59 51°18.273 2°51.039 314.1 14.5 307 11.6
2005-05-26 06:53:04 51°18.283 2°51.015 313.7 14.5 306 11.7
2005-05-26 06:53:08 51°18.294 2°50.991 313.2 14.6 305 11.8
2005-05-26 06:53:14 51°18.306 2°50.962 312 14.6 305 11.9
2005-05-26 06:53:19 51°18.318 2°50.932 310.9 14.6 305 11.9
2005-05-26 06:53:24 51°18.329 2°50.905 310.1 14.6 305 12
2005-05-26 06:53:29 51°18.339 2°50.88 309.6 14.6 302 12.1
2005-05-26 06:53:34 51°18.349 2°50.853 309.2 14.5 301 12.2
2005-05-26 06:53:39 51°18.358 2°50.825 308.4 14.5 301 12.2
2005-05-26 06:53:44 51°18.37 2°50.794 307.2 14.5 301 12.3
2005-05-26 06:53:49 51°18.378 2°50.768 306.7 14.5 299 12.3
2005-05-26 06:53:54 51°18.388 2°50.74 306 14.5 298 12.4
2005-05-26 06:53:58 51°18.395 2°50.717 305.7 14.4 298 12.4
2005-05-26 06:54:04 51°18.407 2°50.684 305.5 14.5 298 12.5
2005-05-26 06:54:08 51°18.416 2°50.658 305.4 14.5 298 12.6
2005-05-26 06:54:14 51°18.426 2°50.627 305.5 14.5 298 12.7
2005-05-26 06:54:19 51°18.436 2°50.599 305.5 14.5 298 12.8
2005-05-26 06:54:23 51°18.444 2°50.573 305.4 14.5 298 12.7
2005-05-26 06:54:29 51°18.455 2°50.542 305.4 14.5 298 12.7
2005-05-26 06:54:34 51°18.464 2°50.514 305.6 14.5 298 12.9
2005-05-26 06:54:39 51°18.474 2°50.486 305.7 14.5 298 12.8
2005-05-26 06:54:44 51°18.483 2°50.457 305.7 14.5 298 12.9
2005-05-26 06:54:48 51°18.491 2°50.432 305.1 14.5 297 12.9
2005-05-26 06:54:54 51°18.501 2°50.4 304.8 14.5 297 12.9
2005-05-26 06:54:59 51°18.511 2°50.372 304.7 14.4 297 12.9
2005-05-26 06:55:04 51°18.52 2°50.343 304.5 14.4 297 13
2005-05-26 06:55:09 51°18.529 2°50.314 304.3 14.4 297 12.9
2005-05-26 06:55:14 51°18.538 2°50.286 304 14.5 297 13
2005-05-26 06:55:19 51°18.548 2°50.257 304.1 14.5 297 13
2005-05-26 06:55:24 51°18.557 2°50.229 304.3 14.5 297 12.9
2005-05-26 06:55:28 51°18.565 2°50.203 304.6 14.5 297 12.9
2005-05-26 06:55:34 51°18.575 2°50.172 304.6 14.4 297 12.9
2005-05-26 06:55:39 51°18.584 2°50.143 304.2 14.4 297 12.8
2005-05-26 06:55:44 51°18.594 2°50.114 304.1 14.5 297 12.7
2005-05-26 06:55:48 51°18.602 2°50.089 304.1 14.5 297 12.5
2005-05-26 06:55:54 51°18.612 2°50.057 304.4 14.5 297 12.5
2005-05-26 06:55:58 51°18.62 2°50.034 304.7 14.5 297 12.2
2005-05-26 06:56:04 51°18.631 2°50 304.6 14.5 297 12.1
2005-05-26 06:56:08 51°18.639 2°49.974 304.4 14.4 297 12
2005-05-26 06:56:14 51°18.648 2°49.942 303.2 14.5 295 11.8
2005-05-26 06:56:19 51°18.656 2°49.913 302 14.5 295 11.7
2005-05-26 06:56:24 51°18.664 2°49.884 301.1 14.5 295 11.7
2005-05-26 06:56:29 51°18.672 2°49.854 300.4 14.5 293 11.6
2005-05-26 06:56:34 51°18.68 2°49.824 299.8 14.5 293 11.5
2005-05-26 06:56:39 51°18.687 2°49.794 299.5 14.5 293 11.3
2005-05-26 06:56:44 51°18.695 2°49.765 299.3 14.5 293 10.8
2005-05-26 06:56:49 51°18.703 2°49.735 299.2 14.5 293 10.3
2005-05-26 06:56:54 51°18.711 2°49.707 299.3 14.5 293 10.3
2005-05-26 06:56:58 51°18.718 2°49.68 299.3 14.4 293 10.4
2005-05-26 06:57:04 51°18.727 2°49.648 299.4 14.4 293 10.1
2005-05-26 06:57:08 51°18.734 2°49.621 299.6 14.4 293 9.7
2005-05-26 06:57:14 51°18.743 2°49.589 299.7 14.5 294 9.6
2005-05-26 06:57:19 51°18.751 2°49.56 299.7 14.5 294 9.6
2005-05-26 06:57:24 51°18.759 2°49.53 299.8 14.4 294 9.4
2005-05-26 06:57:29 51°18.767 2°49.501 300 14.4 294 9.3
2005-05-26 06:57:33 51°18.774 2°49.474 300.4 14.5 294 9.3
2005-05-26 06:57:38 51°18.783 2°49.444 300.2 14.5 293 9.2
2005-05-26 06:57:44 51°18.791 2°49.412 300 14.5 294 9.2
2005-05-26 06:57:49 51°18.799 2°49.383 299.7 14.5 293 9.2
2005-05-26 06:57:54 51°18.807 2°49.353 299.6 14.5 293 9.2
2005-05-26 06:57:59 51°18.815 2°49.323 299.5 14.5 293 9.5
2005-05-26 06:58:04 51°18.823 2°49.293 299.4 14.5 293 9.7
2005-05-26 06:58:09 51°18.832 2°49.263 299.4 14.6 293 9.9
2005-05-26 06:58:14 51°18.84 2°49.233 299.9 14.8 293 10.4
2005-05-26 06:58:18 51°18.847 2°49.206 300.1 14.9 293 9.5
2005-05-26 06:58:24 51°18.856 2°49.172 299.8 14.8 293 9.2
2005-05-26 06:58:29 51°18.865 2°49.14 299.6 14.8 293 10.3
2005-05-26 06:58:34 51°18.873 2°49.113 299.5 14.7 293 9.6
2005-05-26 06:58:39 51°18.881 2°49.083 299.7 14.7 294 9.7
2005-05-26 06:58:44 51°18.889 2°49.052 299.6 14.7 294 10.2
2005-05-26 06:58:49 51°18.897 2°49.022 299.5 14.7 294 10.4
2005-05-26 06:58:54 51°18.906 2°48.992 299.2 14.7 294 10.3
2005-05-26 06:58:59 51°18.914 2°48.962 299.4 14.9 294 10.5
2005-05-26 06:59:04 51°18.922 2°48.932 299.7 14.8 293 10.9
2005-05-26 06:59:09 51°18.931 2°48.902 299.8 14.9 294 11
2005-05-26 06:59:14 51°18.939 2°48.872 299.9 14.9 293 11.3
2005-05-26 06:59:19 51°18.947 2°48.841 299.9 14.9 294 11.6
2005-05-26 06:59:24 51°18.956 2°48.811 299.9 14.9 294 11.7
2005-05-26 06:59:29 51°18.964 2°48.78 299.9 15 294 12.1
2005-05-26 06:59:34 51°18.972 2°48.75 299.7 15 294 12.4
2005-05-26 06:59:39 51°18.981 2°48.72 299.7 15 294 12.7
2005-05-26 06:59:44 51°18.989 2°48.689 299.5 14.9 293 12.7
2005-05-26 06:59:49 51°18.997 2°48.659 299.4 14.9 293 12.7
2005-05-26 06:59:54 51°19.005 2°48.629 299.2 14.9 293 12.9
2005-05-26 06:59:59 51°19.013 2°48.596 299.1 14.8 293 13
2005-05-26 07:00:04 51°19.02 2°48.568 299 14.8 292 13
2005-05-26 07:00:09 51°19.029 2°48.538 299 14.8 293 13.2
2005-05-26 07:00:14 51°19.037 2°48.509 299.1 14.7 293 13.5
2005-05-26 07:00:19 51°19.045 2°48.479 299.4 14.7 293 13.8
2005-05-26 07:00:24 51°19.053 2°48.446 299.6 14.7 293 14
2005-05-26 07:00:28 51°19.06 2°48.422 299.6 14.7 293 14.3
2005-05-26 07:00:34 51°19.068 2°48.389 299.3 14.7 293 14.5
2005-05-26 07:00:39 51°19.076 2°48.359 299 14.7 293 14.8
2005-05-26 07:00:43 51°19.083 2°48.332 298.7 14.6 293 15
2005-05-26 07:00:48 51°19.091 2°48.302 299 14.6 293 15.3
2005-05-26 07:00:54 51°19.1 2°48.27 299.7 14.6 293 15.5
2005-05-26 07:00:58 51°19.107 2°48.243 299.7 14.5 293 15.6
2005-05-26 07:01:04 51°19.116 2°48.21 299.6 14.5 293 15.8
2005-05-26 07:01:09 51°19.124 2°48.178 299.5 14.5 293 15.9
2005-05-26 07:01:14 51°19.131 2°48.151 299.2 14.5 293 16
2005-05-26 07:01:19 51°19.14 2°48.118 299.2 14.6 292 16.2
2005-05-26 07:01:24 51°19.147 2°48.091 299.2 14.5 293 16.4
2005-05-26 07:01:29 51°19.154 2°48.061 299 14.5 291 16.6
2005-05-26 07:01:34 51°19.161 2°48.03 298 14.6 290 16.7
2005-05-26 07:01:39 51°19.168 2°47.997 297.2 14.5 290 16.9
2005-05-26 07:01:44 51°19.174 2°47.97 296.6 14.6 290 17
2005-05-26 07:01:49 51°19.181 2°47.94 296.4 14.6 289 17.2
2005-05-26 07:01:54 51°19.188 2°47.909 296.1 14.6 289 17.3
2005-05-26 07:01:59 51°19.194 2°47.879 295.8 14.6 289 17.4
2005-05-26 07:02:04 51°19.201 2°47.848 295.5 14.6 289 17.6
2005-05-26 07:02:08 51°19.207 2°47.821 295.4 14.6 289 17.7
2005-05-26 07:02:14 51°19.214 2°47.787 295.4 14.6 289 18
2005-05-26 07:02:18 51°19.22 2°47.759 295.6 14.7 289 18
2005-05-26 07:02:24 51°19.228 2°47.723 295.6 14.7 289 18.2
2005-05-26 07:02:28 51°19.234 2°47.698 295.6 14.7 289 18.6
2005-05-26 07:02:34 51°19.241 2°47.664 295.7 14.7 289 18.7
2005-05-26 07:02:39 51°19.248 2°47.631 295.7 14.7 289 18.8
2005-05-26 07:02:44 51°19.254 2°47.603 295.7 14.7 289 18.9
2005-05-26 07:02:49 51°19.261 2°47.572 295.9 14.7 289 19.1
2005-05-26 07:02:54 51°19.268 2°47.541 296 14.7 289 19.3
2005-05-26 07:02:58 51°19.274 2°47.513 295.7 14.8 289 19.5
2005-05-26 07:03:04 51°19.281 2°47.479 295.6 14.7 289 19.6
2005-05-26 07:03:09 51°19.287 2°47.448 295.5 14.7 289 19.6
2005-05-26 07:03:14 51°19.294 2°47.418 295.7 14.7 289 19.7
2005-05-26 07:03:19 51°19.301 2°47.387 296 14.7 289 19.8
2005-05-26 07:03:23 51°19.307 2°47.36 296.2 14.7 289 19.7
2005-05-26 07:03:29 51°19.314 2°47.326 296.1 14.7 289 19.8
2005-05-26 07:03:34 51°19.321 2°47.295 296.1 14.8 289 19.7
2005-05-26 07:03:38 51°19.327 2°47.267 296 14.7 289 19.8
2005-05-26 07:03:44 51°19.335 2°47.234 296.1 14.7 289 19.8
2005-05-26 07:03:49 51°19.342 2°47.203 296.1 14.7 289 19.8
2005-05-26 07:03:54 51°19.348 2°47.172 296.2 14.7 289 19.8
2005-05-26 07:03:59 51°19.355 2°47.141 296.3 14.7 289 19.8
2005-05-26 07:04:04 51°19.362 2°47.111 296.3 14.8 290 19.8
2005-05-26 07:04:09 51°19.369 2°47.08 296.5 14.8 290 19.9
2005-05-26 07:04:14 51°19.376 2°47.049 296.7 14.8 290 19.8
2005-05-26 07:04:19 51°19.384 2°47.015 296.7 14.8 290 19.8
2005-05-26 07:04:24 51°19.39 2°46.988 296.4 14.8 290 19.9
2005-05-26 07:04:29 51°19.397 2°46.957 296.4 14.8 290 19.9
2005-05-26 07:04:34 51°19.404 2°46.926 296.3 14.8 290 19.7
2005-05-26 07:04:39 51°19.412 2°46.892 296.1 14.8 290 19.7
2005-05-26 07:04:44 51°19.418 2°46.864 296.2 14.8 290 19.8
2005-05-26 07:04:49 51°19.426 2°46.83 296.4 14.8 290 19.9
2005-05-26 07:04:54 51°19.432 2°46.803 296.7 14.8 291 19.8
2005-05-26 07:04:59 51°19.439 2°46.771 296.7 14.9 290 19.7
2005-05-26 07:05:04 51°19.446 2°46.741 296.6 14.8 290 19.8
2005-05-26 07:05:09 51°19.453 2°46.71 296.4 14.8 290 19.6
2005-05-26 07:05:14 51°19.459 2°46.678 295.6 14.8 290 19.4
2005-05-26 07:05:18 51°19.463 2°46.653 293.8 14.8 287 19.3
2005-05-26 07:05:24 51°19.47 2°46.614 292.9 14.8 286 19.2
2005-05-26 07:05:28 51°19.475 2°46.586 291.9 14.8 286 19
2005-05-26 07:05:34 51°19.481 2°46.551 291.3 14.8 286 18.8
2005-05-26 07:05:39 51°19.486 2°46.519 290.7 14.8 286 18.7
2005-05-26 07:05:43 51°19.491 2°46.49 290.3 14.8 286 18.2
2005-05-26 07:05:49 51°19.496 2°46.455 290.2 14.8 286 17.7
2005-05-26 07:05:54 51°19.501 2°46.423 290 14.9 284 17.4
2005-05-26 07:05:59 51°19.506 2°46.39 289.5 14.8 284 17.8
2005-05-26 07:06:04 51°19.511 2°46.361 289.4 14.8 283 17.3
2005-05-26 07:06:09 51°19.516 2°46.33 289.4 14.8 285 17.6
2005-05-26 07:06:14 51°19.521 2°46.298 289.6 14.9 284 16.1
2005-05-26 07:06:19 51°19.527 2°46.263 289.9 14.8 285 17.5
2005-05-26 07:06:24 51°19.531 2°46.234 290.1 14.9 284 17.1
2005-05-26 07:06:29 51°19.537 2°46.199 290 14.8 285 16.7
2005-05-26 07:06:34 51°19.542 2°46.171 289.6 14.8 284 16.5
2005-05-26 07:06:39 51°19.546 2°46.139 289.5 14.8 284 15.3
2005-05-26 07:06:44 51°19.551 2°46.108 289.5 14.8 284 15.3
2005-05-26 07:06:49 51°19.557 2°46.076 289.8 14.8 284 15
2005-05-26 07:06:54 51°19.562 2°46.044 289.5 14.8 284 13.8
2005-05-26 07:06:59 51°19.567 2°46.01 289.4 14.8 284 14.4
2005-05-26 07:07:04 51°19.572 2°45.981 289.5 14.8 284 14.4
2005-05-26 07:07:08 51°19.577 2°45.953 289.6 14.8 284 14.1
2005-05-26 07:07:14 51°19.582 2°45.918 290.1 14.8 284 12.5
2005-05-26 07:07:19 51°19.587 2°45.887 290.2 14.8 284 12.6
2005-05-26 07:07:24 51°19.593 2°45.855 289.9 14.8 284 11.9
2005-05-26 07:07:29 51°19.597 2°45.824 289.6 14.8 284 13
2005-05-26 07:07:34 51°19.602 2°45.792 289.4 14.7 284 12.3
2005-05-26 07:07:39 51°19.608 2°45.758 289.5 14.7 284 10.4
2005-05-26 07:07:44 51°19.613 2°45.729 289.5 14.7 285 12.2
2005-05-26 07:07:49 51°19.618 2°45.695 290 14.7 285 11.5
2005-05-26 07:07:54 51°19.623 2°45.666 290.1 14.7 285 10.5
2005-05-26 07:07:59 51°19.629 2°45.631 289.9 14.7 285 11.2
2005-05-26 07:08:04 51°19.634 2°45.603 289.9 14.7 285 10.5
2005-05-26 07:08:08 51°19.639 2°45.575 290.2 14.7 285 11.4
2005-05-26 07:08:14 51°19.644 2°45.54 290.2 14.7 285 10.4
2005-05-26 07:08:19 51°19.65 2°45.508 290.4 14.7 285 10.6
2005-05-26 07:08:24 51°19.655 2°45.477 290.4 14.7 285 11.2
2005-05-26 07:08:28 51°19.66 2°45.448 290.7 14.7 285 9.6
2005-05-26 07:08:34 51°19.666 2°45.413 290.9 14.7 285 11.8
2005-05-26 07:08:39 51°19.672 2°45.378 290.6 14.9 285 10.5
2005-05-26 07:08:44 51°19.676 2°45.348 290.1 15 284 12.1
2005-05-26 07:08:49 51°19.681 2°45.316 289.6 15.1 284 13.1
2005-05-26 07:08:54 51°19.686 2°45.283 289.4 15.1 283 14.5
2005-05-26 07:08:58 51°19.691 2°45.254 288.7 15.2 283 15.7
2005-05-26 07:09:04 51°19.696 2°45.218 288.6 15.2 283 14.7
2005-05-26 07:09:08 51°19.7 2°45.189 288.3 15.2 283 16
2005-05-26 07:09:14 51°19.705 2°45.153 288.4 15.2 283 17.2
2005-05-26 07:09:19 51°19.71 2°45.117 288.7 15 283 18.3
2005-05-26 07:09:24 51°19.715 2°45.085 288.6 15 283 18.7
2005-05-26 07:09:29 51°19.719 2°45.056 288.8 15 283 19
2005-05-26 07:09:34 51°19.724 2°45.024 288.8 15 283 19.4
2005-05-26 07:09:39 51°19.729 2°44.991 288.5 15 283 19.4
2005-05-26 07:09:44 51°19.734 2°44.959 288.8 14.9 283 19.6
2005-05-26 07:09:49 51°19.738 2°44.927 288.7 14.9 283 19.6
2005-05-26 07:09:54 51°19.743 2°44.894 288.7 14.9 283 19.5
2005-05-26 07:09:58 51°19.747 2°44.865 288.5 14.9 283 19.5
2005-05-26 07:10:04 51°19.752 2°44.83 288.7 14.9 283 19.7
2005-05-26 07:10:09 51°19.758 2°44.795 288.8 15 284 19.8
2005-05-26 07:10:14 51°19.762 2°44.766 289.2 15 283 20
2005-05-26 07:10:19 51°19.767 2°44.733 288.8 15 283 20.2
2005-05-26 07:10:24 51°19.772 2°44.701 288.9 15 284 20.4
2005-05-26 07:10:29 51°19.776 2°44.669 289.2 15 284 20.5
2005-05-26 07:10:34 51°19.781 2°44.636 289.3 15 283 20.8
2005-05-26 07:10:39 51°19.786 2°44.604 289.1 15 283 20.8
2005-05-26 07:10:44 51°19.791 2°44.572 289 15 283 21.3
2005-05-26 07:10:49 51°19.795 2°44.539 288.8 15 283 21.4
2005-05-26 07:10:54 51°19.8 2°44.507 288.6 15 283 21.5
2005-05-26 07:10:59 51°19.805 2°44.475 288.8 15 283 21.7
2005-05-26 07:11:04 51°19.81 2°44.443 289 15 283 22
2005-05-26 07:11:08 51°19.814 2°44.414 289 15 283 22
2005-05-26 07:11:14 51°19.819 2°44.378 288.8 15 283 22.1
2005-05-26 07:11:19 51°19.824 2°44.343 288.7 14.9 283 22.1
2005-05-26 07:11:24 51°19.829 2°44.311 288.7 14.9 283 22.2
2005-05-26 07:11:29 51°19.833 2°44.282 288.6 14.9 283 22.3
2005-05-26 07:11:33 51°19.837 2°44.256 288.6 14.9 283 22.3
2005-05-26 07:11:38 51°19.842 2°44.221 288.9 14.9 284 22.4
2005-05-26 07:11:44 51°19.848 2°44.183 289.3 14.9 284 22.3
2005-05-26 07:11:49 51°19.852 2°44.154 289.3 14.9 284 22.4
2005-05-26 07:11:53 51°19.856 2°44.128 289 14.8 283 22.5
2005-05-26 07:11:58 51°19.861 2°44.093 289 14.9 283 22.7
2005-05-26 07:12:04 51°19.867 2°44.055 288.7 14.9 283 22.9
2005-05-26 07:12:09 51°19.872 2°44.026 288.8 14.9 283 23.2
2005-05-26 07:12:14 51°19.876 2°43.994 288.9 14.9 284 23.2
2005-05-26 07:12:19 51°19.881 2°43.959 289.1 14.9 283 23.3
2005-05-26 07:12:24 51°19.886 2°43.93 288.9 14.9 284 23.2
2005-05-26 07:12:29 51°19.891 2°43.895 288.9 14.9 284 23.2
2005-05-26 07:12:34 51°19.896 2°43.866 289 14.9 284 23.2
2005-05-26 07:12:39 51°19.902 2°43.83 289.3 14.8 284 23.4
2005-05-26 07:12:44 51°19.906 2°43.801 289.4 14.8 284 23.6
2005-05-26 07:12:48 51°19.911 2°43.772 289.4 14.8 284 23.7
2005-05-26 07:12:54 51°19.916 2°43.737 289.2 14.8 284 24
2005-05-26 07:12:58 51°19.92 2°43.708 289 14.8 284 24.1
2005-05-26 07:13:04 51°19.926 2°43.671 288.8 14.8 284 24.3
2005-05-26 07:13:09 51°19.931 2°43.642 288.8 14.8 284 24.4
2005-05-26 07:13:14 51°19.936 2°43.611 288.8 14.8 284 24.4
2005-05-26 07:13:19 51°19.941 2°43.576 289.1 14.8 284 24.6
2005-05-26 07:13:24 51°19.945 2°43.547 289.2 14.8 284 24.6
2005-05-26 07:13:29 51°19.95 2°43.516 288.9 14.8 284 24.8
2005-05-26 07:13:34 51°19.955 2°43.484 288.8 14.8 284 25
2005-05-26 07:13:39 51°19.961 2°43.449 288.9 14.8 284 24.9
2005-05-26 07:13:44 51°19.966 2°43.42 289.5 14.8 284 24.8
2005-05-26 07:13:48 51°19.97 2°43.392 289.5 14.8 285 24.7
2005-05-26 07:13:54 51°19.976 2°43.357 289.5 14.8 285 24.8
2005-05-26 07:13:58 51°19.981 2°43.328 289.7 14.8 285 24.6
2005-05-26 07:14:04 51°19.986 2°43.293 289.8 14.8 285 24.4
2005-05-26 07:14:09 51°19.992 2°43.262 289.8 14.8 285 24.5
2005-05-26 07:14:14 51°19.997 2°43.23 289.8 14.8 285 24.5
2005-05-26 07:14:19 51°20.002 2°43.199 289.9 14.8 285 24.5
2005-05-26 07:14:24 51°20.008 2°43.167 289.9 14.8 285 24.7
2005-05-26 07:14:29 51°20.013 2°43.132 289.7 14.8 285 24.6
2005-05-26 07:14:34 51°20.018 2°43.104 289.6 14.8 285 24.6
2005-05-26 07:14:39 51°20.023 2°43.072 289.5 14.8 285 24.5
2005-05-26 07:14:44 51°20.028 2°43.04 289.4 14.8 284 24.6
2005-05-26 07:14:49 51°20.033 2°43.009 289.2 14.8 284 24.4
2005-05-26 07:14:54 51°20.039 2°42.977 289.1 14.8 284 24.4
2005-05-26 07:14:59 51°20.045 2°42.943 289.3 14.8 284 24.3
2005-05-26 07:15:04 51°20.05 2°42.914 289.5 14.7 285 24.1
2005-05-26 07:15:09 51°20.055 2°42.883 289.5 14.7 284 24
2005-05-26 07:15:14 51°20.06 2°42.852 289.2 14.7 285 23.8
2005-05-26 07:15:19 51°20.065 2°42.817 289 14.7 284 23.9
2005-05-26 07:15:24 51°20.07 2°42.789 288.8 14.7 284 23.8
2005-05-26 07:15:29 51°20.075 2°42.754 288.8 14.7 285 23.5
2005-05-26 07:15:34 51°20.08 2°42.726 288.8 14.7 285 23.5
2005-05-26 07:15:39 51°20.084 2°42.691 288.8 14.7 283 23.2
2005-05-26 07:15:44 51°20.088 2°42.659 288.4 14.7 283 22.9
2005-05-26 07:15:48 51°20.092 2°42.633 287.4 14.7 281 21.8
2005-05-26 07:15:54 51°20.096 2°42.598 287.7 14.7 281 22.8
2005-05-26 07:15:59 51°20.101 2°42.564 288.2 14.7 281 22.9
2005-05-26 07:16:04 51°20.105 2°42.535 289 14.7 281 22.7
2005-05-26 07:16:09 51°20.11 2°42.503 289.4 14.7 283 22.6
2005-05-26 07:16:14 51°20.114 2°42.472 289.5 14.7 283 22.4
2005-05-26 07:16:19 51°20.119 2°42.44 289.6 14.7 283 21.9
2005-05-26 07:16:24 51°20.124 2°42.408 289.8 14.7 283 21.3
2005-05-26 07:16:29 51°20.128 2°42.377 289.7 14.7 283 21.7
2005-05-26 07:16:34 51°20.133 2°42.345 289.6 14.7 283 21.6
2005-05-26 07:16:39 51°20.137 2°42.313 289.7 14.7 284 21.3
2005-05-26 07:16:44 51°20.143 2°42.279 289.7 14.7 283 21
2005-05-26 07:16:48 51°20.146 2°42.253 289.9 14.7 284 20.3
2005-05-26 07:16:54 51°20.152 2°42.218 290.1 14.7 283 19.1
2005-05-26 07:16:59 51°20.157 2°42.186 289.9 14.8 284 16.4
2005-05-26 07:17:04 51°20.162 2°42.154 290.1 14.8 283 17.8
2005-05-26 07:17:09 51°20.166 2°42.123 289.8 14.8 283 17.7
2005-05-26 07:17:14 51°20.171 2°42.091 289.8 14.8 283 17.8
2005-05-26 07:17:19 51°20.176 2°42.056 289.6 14.8 283 18.2
2005-05-26 07:17:24 51°20.18 2°42.027 289.4 14.8 283 18.3
2005-05-26 07:17:29 51°20.185 2°41.995 289.3 14.8 283 17.2
2005-05-26 07:17:34 51°20.19 2°41.963 289.1 14.8 283 14.6
2005-05-26 07:17:39 51°20.195 2°41.928 289.3 14.8 283 17.1
2005-05-26 07:17:44 51°20.199 2°41.899 289 14.9 283 17.3
2005-05-26 07:17:48 51°20.204 2°41.87 289.1 14.9 283 18.1
2005-05-26 07:17:54 51°20.209 2°41.835 289.3 14.9 284 16.3
2005-05-26 07:17:59 51°20.214 2°41.802 289.3 14.9 284 16.7
2005-05-26 07:18:04 51°20.22 2°41.767 289.4 14.9 284 13.6
2005-05-26 07:18:08 51°20.224 2°41.742 289.2 14.9 283 16.5
2005-05-26 07:18:14 51°20.229 2°41.706 289 14.9 283 16
2005-05-26 07:18:19 51°20.234 2°41.671 288.9 14.9 283 17
2005-05-26 07:18:24 51°20.239 2°41.642 288.8 15 284 15.3
2005-05-26 07:18:28 51°20.243 2°41.613 289.2 15 284 16.9
2005-05-26 07:18:34 51°20.249 2°41.577 289.5 15 284 18.6
2005-05-26 07:18:38 51°20.253 2°41.548 289.6 15 284 19.5
2005-05-26 07:18:44 51°20.259 2°41.512 289.5 15.1 283 20.3
2005-05-26 07:18:49 51°20.263 2°41.48 289 15.1 283 20.6
2005-05-26 07:18:54 51°20.268 2°41.448 289.3 15 284 20.7
2005-05-26 07:18:59 51°20.274 2°41.415 289.5 15 283 20.5
2005-05-26 07:19:04 51°20.278 2°41.383 289.5 15 284 20.5
2005-05-26 07:19:09 51°20.284 2°41.348 289.1 15 283 19.4
2005-05-26 07:19:14 51°20.288 2°41.319 288.8 15 284 19.7
2005-05-26 07:19:19 51°20.294 2°41.283 289.2 15 284 18.5
2005-05-26 07:19:24 51°20.298 2°41.254 289.5 15 284 18.5
2005-05-26 07:19:29 51°20.303 2°41.222 289.6 15 284 18.8
2005-05-26 07:19:34 51°20.308 2°41.19 289.4 15 283 18.7
2005-05-26 07:19:39 51°20.313 2°41.154 288.9 15 283 19.8
2005-05-26 07:19:44 51°20.318 2°41.125 289 15 283 20.7
2005-05-26 07:19:48 51°20.322 2°41.096 289 15 283 19.6
2005-05-26 07:19:54 51°20.328 2°41.061 289.3 15 283 20.2
2005-05-26 07:19:58 51°20.332 2°41.032 289.5 15 284 22.1
2005-05-26 07:20:04 51°20.338 2°40.994 289.8 15 284 23.6
2005-05-26 07:20:09 51°20.343 2°40.964 289.9 15 284 25
2005-05-26 07:20:14 51°20.348 2°40.932 289.9 15 284 26
2005-05-26 07:20:19 51°20.353 2°40.897 289.6 15 284 26.3
2005-05-26 07:20:24 51°20.357 2°40.868 289.2 15 284 26.4
2005-05-26 07:20:29 51°20.362 2°40.835 288.8 15 283 26.5
2005-05-26 07:20:34 51°20.367 2°40.803 288.8 15 283 26.5
2005-05-26 07:20:39 51°20.372 2°40.768 289.1 15 284 26.5
2005-05-26 07:20:44 51°20.377 2°40.735 289.4 15 284 26.4
2005-05-26 07:20:48 51°20.381 2°40.709 289.1 15 283 26.4
2005-05-26 07:20:54 51°20.385 2°40.674 289 15 283 26.4
2005-05-26 07:20:59 51°20.39 2°40.641 288.7 15 283 26.4
2005-05-26 07:21:04 51°20.395 2°40.609 288.8 14.9 283 26.3
2005-05-26 07:21:09 51°20.401 2°40.574 289 14.9 283 26.4
2005-05-26 07:21:14 51°20.405 2°40.545 289.3 14.9 284 26.3
2005-05-26 07:21:19 51°20.409 2°40.513 289.4 14.9 284 26.1
2005-05-26 07:21:24 51°20.414 2°40.481 289.1 14.9 283 26
2005-05-26 07:21:29 51°20.42 2°40.446 288.7 14.9 283 25.8
2005-05-26 07:21:34 51°20.424 2°40.416 289 14.9 283 25.7
2005-05-26 07:21:39 51°20.429 2°40.381 289.1 14.9 283 25.3
2005-05-26 07:21:44 51°20.434 2°40.352 289.1 14.9 283 25.4
2005-05-26 07:21:49 51°20.439 2°40.317 289.4 14.9 284 25.3
2005-05-26 07:21:54 51°20.443 2°40.288 289.5 14.9 283 25.1
2005-05-26 07:21:59 51°20.449 2°40.253 289.4 14.9 283 25.3
2005-05-26 07:22:04 51°20.453 2°40.224 289.2 14.9 283 25.2
2005-05-26 07:22:08 51°20.457 2°40.195 288.9 14.9 283 25.3
2005-05-26 07:22:14 51°20.463 2°40.159 289 14.9 283 25.4
2005-05-26 07:22:19 51°20.468 2°40.124 289.2 14.9 283 25.2
2005-05-26 07:22:24 51°20.472 2°40.095 289 15 283 25.4
2005-05-26 07:22:29 51°20.477 2°40.062 288.8 14.9 282 25.7
2005-05-26 07:22:34 51°20.479 2°40.029 288.1 14.9 280 25.5
2005-05-26 07:22:39 51°20.483 2°39.994 285.4 15 279 25.4
2005-05-26 07:22:44 51°20.485 2°39.964 283.8 15 279 25.6
2005-05-26 07:22:49 51°20.488 2°39.931 282.7 15 277 25.4
2005-05-26 07:22:54 51°20.49 2°39.898 282 15 276 25.3
2005-05-26 07:22:59 51°20.492 2°39.865 281.3 15 276 25
2005-05-26 07:23:04 51°20.494 2°39.829 280.6 15 276 25
2005-05-26 07:23:09 51°20.496 2°39.795 280.2 15 276 24.8
2005-05-26 07:23:14 51°20.498 2°39.766 280.1 15 275 24.8
2005-05-26 07:23:19 51°20.5 2°39.732 280 15 275 24.6
2005-05-26 07:23:24 51°20.502 2°39.7 279.7 15 276 24.6
2005-05-26 07:23:29 51°20.504 2°39.667 279.7 15 275 24.6
2005-05-26 07:23:34 51°20.505 2°39.634 279.4 15 275 24.5
2005-05-26 07:23:38 51°20.507 2°39.603 279.4 15 275 24.4
2005-05-26 07:23:44 51°20.51 2°39.567 279.9 15 276 24.1
2005-05-26 07:23:49 51°20.512 2°39.531 280.1 15 276 23.9
2005-05-26 07:23:54 51°20.514 2°39.501 280.3 15 277 23.6
2005-05-26 07:23:59 51°20.517 2°39.465 280.6 15.1 276 23.3
2005-05-26 07:24:04 51°20.518 2°39.435 280.3 15 276 23.2
2005-05-26 07:24:08 51°20.52 2°39.405 280.1 15 276 23.6
2005-05-26 07:24:14 51°20.522 2°39.369 279.7 15 276 23.5
2005-05-26 07:24:19 51°20.525 2°39.332 279.7 15 276 23.4
2005-05-26 07:24:24 51°20.527 2°39.299 279.6 15 276 23.4
2005-05-26 07:24:29 51°20.529 2°39.269 280 15 276 23.1
2005-05-26 07:24:34 51°20.531 2°39.236 280 15.1 276 22.9
2005-05-26 07:24:38 51°20.533 2°39.206 280.2 15.1 276 23
2005-05-26 07:24:44 51°20.536 2°39.169 280.3 15.1 276 22.7
2005-05-26 07:24:49 51°20.537 2°39.137 280.3 15 275 22.7
2005-05-26 07:24:54 51°20.539 2°39.103 279.8 15 275 22.9
2005-05-26 07:24:59 51°20.542 2°39.067 279.5 15 275 22.9
2005-05-26 07:25:04 51°20.544 2°39.037 279.6 15 276 23
2005-05-26 07:25:09 51°20.546 2°39.001 279.8 15 276 23.2
2005-05-26 07:25:14 51°20.548 2°38.971 280.1 15 276 23.3
2005-05-26 07:25:19 51°20.551 2°38.935 280.3 15 276 23.2
2005-05-26 07:25:24 51°20.552 2°38.905 280.3 15 276 23.1
2005-05-26 07:25:28 51°20.553 2°38.875 279.6 15 276 23.1
2005-05-26 07:25:34 51°20.556 2°38.839 279 15 274 23
2005-05-26 07:25:39 51°20.557 2°38.806 279.3 15 275 22.6
2005-05-26 07:25:44 51°20.559 2°38.773 279.4 15 275 22.4
2005-05-26 07:25:49 51°20.562 2°38.737 279.6 14.9 275 21.2
2005-05-26 07:25:54 51°20.564 2°38.707 280 15 276 22.4
2005-05-26 07:25:59 51°20.566 2°38.671 280.3 14.9 276 22.3
2005-05-26 07:26:04 51°20.568 2°38.641 280.6 14.9 276 22.5
2005-05-26 07:26:08 51°20.569 2°38.612 280.6 14.9 276 22.3
2005-05-26 07:26:14 51°20.572 2°38.576 280.4 14.9 276 22.3
2005-05-26 07:26:19 51°20.574 2°38.543 280.1 14.9 276 22
2005-05-26 07:26:24 51°20.575 2°38.51 280 14.9 276 22.1
2005-05-26 07:26:28 51°20.577 2°38.48 279.8 14.9 275 21.6
2005-05-26 07:26:34 51°20.579 2°38.444 280.1 14.9 275 22.2
2005-05-26 07:26:39 51°20.582 2°38.408 280.3 15 276 21.8
2005-05-26 07:26:44 51°20.583 2°38.378 280.5 14.9 276 21.9
2005-05-26 07:26:48 51°20.585 2°38.349 280.3 14.9 275 21.5
2005-05-26 07:26:54 51°20.587 2°38.312 280 14.9 275 21.8
2005-05-26 07:26:59 51°20.589 2°38.279 279.9 14.9 276 21.7
2005-05-26 07:27:04 51°20.591 2°38.247 280.2 14.9 275 21.6
2005-05-26 07:27:09 51°20.593 2°38.214 280.1 14.9 274 22.3
2005-05-26 07:27:14 51°20.594 2°38.181 279.5 14.9 274 22
2005-05-26 07:27:19 51°20.596 2°38.145 279.5 14.9 274 21.6
2005-05-26 07:27:24 51°20.598 2°38.115 279.9 14.9 274 20.9
2005-05-26 07:27:29 51°20.599 2°38.082 280 14.9 274 21.6
2005-05-26 07:27:34 51°20.601 2°38.05 280 14.9 274 21.1
2005-05-26 07:27:39 51°20.603 2°38.013 279.7 14.9 275 22
2005-05-26 07:27:44 51°20.605 2°37.984 279.9 14.9 275 21.5
2005-05-26 07:27:49 51°20.607 2°37.951 280.3 14.8 275 20.9
2005-05-26 07:27:54 51°20.608 2°37.919 280.4 14.9 275 21.7
2005-05-26 07:27:59 51°20.61 2°37.883 280.1 14.8 275 21.6
2005-05-26 07:28:04 51°20.611 2°37.853 279.9 14.9 274 21.6
2005-05-26 07:28:08 51°20.613 2°37.824 279.7 14.9 274 21.6
2005-05-26 07:28:14 51°20.615 2°37.788 280.2 14.9 274 21.6
2005-05-26 07:28:18 51°20.617 2°37.758 280.5 14.9 275 21
2005-05-26 07:28:24 51°20.619 2°37.722 280.4 14.9 275 21.7
2005-05-26 07:28:29 51°20.621 2°37.686 280.2 14.8 275 21.6
2005-05-26 07:28:34 51°20.622 2°37.656 280.2 14.8 275 21.2
2005-05-26 07:28:39 51°20.625 2°37.621 280.1 14.9 275 20.5
2005-05-26 07:28:44 51°20.627 2°37.591 280.4 14.8 275 21.7
2005-05-26 07:28:49 51°20.629 2°37.555 280.6 14.9 276 21.9
2005-05-26 07:28:54 51°20.631 2°37.526 280.8 14.8 276 21.9
2005-05-26 07:28:59 51°20.633 2°37.49 280.8 14.9 276 21.3
2005-05-26 07:29:04 51°20.635 2°37.46 280.8 14.9 276 20.8
2005-05-26 07:29:08 51°20.637 2°37.431 280.9 14.9 276 20.6
2005-05-26 07:29:14 51°20.639 2°37.395 280.4 14.9 276 21.6
2005-05-26 07:29:19 51°20.641 2°37.359 280.3 14.9 275 22.1
2005-05-26 07:29:24 51°20.643 2°37.326 280.1 14.9 275 21.6
2005-05-26 07:29:29 51°20.645 2°37.296 280.1 14.9 275 21.3
2005-05-26 07:29:34 51°20.646 2°37.263 280 14.9 275 20.2
2005-05-26 07:29:39 51°20.649 2°37.23 279.8 14.9 275 21.4
2005-05-26 07:29:44 51°20.65 2°37.197 279.9 15 276 21.6
2005-05-26 07:29:49 51°20.653 2°37.161 280.4 15 276 21.2
2005-05-26 07:29:54 51°20.655 2°37.131 280.7 15 275 21.7
2005-05-26 07:29:59 51°20.657 2°37.094 280.6 15.1 276 21
2005-05-26 07:30:04 51°20.659 2°37.064 280.3 15.1 276 20.3
2005-05-26 07:30:09 51°20.661 2°37.028 280.2 15.1 275 21.1
2005-05-26 07:30:14 51°20.663 2°36.998 280.1 15 275 20.8
2005-05-26 07:30:19 51°20.665 2°36.962 280.4 15.1 276 20.6
2005-05-26 07:30:24 51°20.667 2°36.932 280.5 15.1 275 20.2
2005-05-26 07:30:29 51°20.669 2°36.895 280.4 15 275 20.6
2005-05-26 07:30:34 51°20.67 2°36.865 280.1 15.1 275 20.1
2005-05-26 07:30:39 51°20.672 2°36.832 280 15.1 275 20.3
2005-05-26 07:30:44 51°20.674 2°36.799 280 15.1 275 19.7
2005-05-26 07:30:49 51°20.676 2°36.762 279.8 15.1 275 19.4
2005-05-26 07:30:54 51°20.678 2°36.732 280 15.1 275 19.7
2005-05-26 07:30:59 51°20.679 2°36.699 280.1 15.1 274 19.6
2005-05-26 07:31:04 51°20.681 2°36.665 279.9 15.1 275 19.1
2005-05-26 07:31:09 51°20.683 2°36.632 279.9 15.1 275 19.5
2005-05-26 07:31:14 51°20.685 2°36.599 280.1 15.1 275 19.6
2005-05-26 07:31:19 51°20.687 2°36.565 280.1 15.1 276 19.8
2005-05-26 07:31:24 51°20.69 2°36.529 280.1 15.2 275 19
2005-05-26 07:31:29 51°20.691 2°36.499 280.4 15.1 276 19.3
2005-05-26 07:31:34 51°20.693 2°36.465 280.4 15.2 275 19.8
2005-05-26 07:31:39 51°20.696 2°36.428 280.5 15.2 276 19.1
2005-05-26 07:31:44 51°20.698 2°36.398 280.7 15.2 276 19.3
2005-05-26 07:31:49 51°20.699 2°36.365 280.8 15.2 275 19.3
2005-05-26 07:31:54 51°20.702 2°36.331 280.2 15.2 276 19.4
2005-05-26 07:31:59 51°20.704 2°36.295 280.3 15.2 275 18.5
2005-05-26 07:32:04 51°20.706 2°36.264 280.4 15.2 276 19.5
2005-05-26 07:32:08 51°20.707 2°36.234 280.7 15.2 276 19.6
2005-05-26 07:32:13 51°20.709 2°36.201 280.3 15.2 276 19.3
2005-05-26 07:32:19 51°20.712 2°36.16 280.2 15.3 275 19.7
2005-05-26 07:32:24 51°20.714 2°36.13 280.1 15.3 275 19.6
2005-05-26 07:32:29 51°20.715 2°36.096 280.2 15.3 275 19.8
2005-05-26 07:32:34 51°20.718 2°36.063 280.1 15.3 275 19.7
2005-05-26 07:32:39 51°20.72 2°36.026 280 15.3 275 20.4
2005-05-26 07:32:44 51°20.721 2°35.995 279.8 15.3 275 21.5
2005-05-26 07:32:49 51°20.723 2°35.961 279.6 15.3 275 22.4
2005-05-26 07:32:54 51°20.725 2°35.928 279.8 15.3 275 22.5
2005-05-26 07:32:59 51°20.727 2°35.894 280.1 15.3 275 22.6
2005-05-26 07:33:04 51°20.73 2°35.861 280.2 15.2 276 22
2005-05-26 07:33:09 51°20.731 2°35.824 280.2 15.2 275 21.2
2005-05-26 07:33:14 51°20.733 2°35.793 280.1 15.2 275 21.5
2005-05-26 07:33:19 51°20.735 2°35.757 279.9 15.2 275 22
2005-05-26 07:33:24 51°20.736 2°35.727 279.4 15.2 274 23.4
2005-05-26 07:33:29 51°20.738 2°35.693 279.2 15.2 275 24.5
2005-05-26 07:33:34 51°20.74 2°35.66 279.7 15.2 275 26.6
2005-05-26 07:33:39 51°20.742 2°35.623 280 15.1 275 27.4
2005-05-26 07:33:44 51°20.744 2°35.593 280 15.1 274 26.5
2005-05-26 07:33:48 51°20.745 2°35.563 279.8 15.1 274 22.7
2005-05-26 07:33:54 51°20.747 2°35.526 280.1 15.1 274 26.4
2005-05-26 07:33:59 51°20.749 2°35.489 280.3 15.1 275 26.7
2005-05-26 07:34:04 51°20.75 2°35.459 280.6 15.1 274 27.3
2005-05-26 07:34:09 51°20.752 2°35.426 280.5 15.1 275 28.6
2005-05-26 07:34:14 51°20.754 2°35.393 280.4 15.1 275 28.1
2005-05-26 07:34:19 51°20.756 2°35.356 280.2 15.1 275 25
2005-05-26 07:34:24 51°20.758 2°35.326 280.3 15.1 275 27
2005-05-26 07:34:29 51°20.759 2°35.293 280.5 15.1 275 27.8
2005-05-26 07:34:34 51°20.761 2°35.259 280.1 15.2 275 28.9
2005-05-26 07:34:39 51°20.763 2°35.225 280.2 15.2 275 28.7
2005-05-26 07:34:44 51°20.765 2°35.193 280.5 15.1 275 25.6
2005-05-26 07:34:48 51°20.766 2°35.162 280.8 15.1 275 27.7
2005-05-26 07:34:54 51°20.769 2°35.125 280.6 15.1 275 28.1
2005-05-26 07:34:58 51°20.77 2°35.095 280.2 15.1 275 29.2
2005-05-26 07:35:04 51°20.772 2°35.058 280.2 15.1 275 29.7
2005-05-26 07:35:09 51°20.774 2°35.025 280.3 15.1 275 28.7
2005-05-26 07:35:14 51°20.776 2°34.991 280.8 15.1 275 28.1
2005-05-26 07:35:19 51°20.777 2°34.958 280.6 15.1 275 28.5
2005-05-26 07:35:24 51°20.779 2°34.925 280.1 15.1 274 29.8
2005-05-26 07:35:29 51°20.781 2°34.891 280 15.1 275 29.8
2005-05-26 07:35:34 51°20.783 2°34.858 280.1 15.2 275 30
2005-05-26 07:35:39 51°20.785 2°34.821 280.2 15.1 275 29
2005-05-26 07:35:44 51°20.786 2°34.791 280.5 15.1 275 27.8
2005-05-26 07:35:49 51°20.788 2°34.758 280.4 15.1 274 28.3
2005-05-26 07:35:54 51°20.79 2°34.724 280 15.1 275 29
2005-05-26 07:35:59 51°20.792 2°34.691 279.8 15.1 275 29.7
2005-05-26 07:36:04 51°20.797 2°34.659 281.7 15 278 29.6
2005-05-26 07:36:09 51°20.803 2°34.627 286.5 15 278 29.8
2005-05-26 07:36:14 51°20.81 2°34.598 291.5 14.8 289 29.7
2005-05-26 07:36:19 51°20.819 2°34.565 297.1 14.7 292 29.5
2005-05-26 07:36:24 51°20.827 2°34.539 300.8 14.7 294 29.6
2005-05-26 07:36:29 51°20.837 2°34.509 303.3 14.7 294 29.6
2005-05-26 07:36:34 51°20.847 2°34.481 305.3 14.6 298 29.9
2005-05-26 07:36:39 51°20.856 2°34.452 306.4 14.6 298 30.1
2005-05-26 07:36:44 51°20.866 2°34.425 307.3 14.6 298 29.9
2005-05-26 07:36:48 51°20.875 2°34.399 308.3 14.6 298 29.7
2005-05-26 07:36:54 51°20.887 2°34.368 308.4 14.6 298 29.2
2005-05-26 07:36:58 51°20.896 2°34.343 309.1 14.6 301 28.8
2005-05-26 07:37:04 51°20.908 2°34.313 309.2 14.6 301 28.7
2005-05-26 07:37:09 51°20.919 2°34.285 309.4 14.6 301 28.7
2005-05-26 07:37:14 51°20.931 2°34.26 310.4 14.5 305 28.9
2005-05-26 07:37:18 51°20.943 2°34.238 315 14.5 309 28.7
2005-05-26 07:37:24 51°20.958 2°34.212 318.3 14.5 309 28.7
2005-05-26 07:37:29 51°20.971 2°34.189 320.8 14.5 309 29
2005-05-26 07:37:34 51°20.985 2°34.166 322.7 14.5 314 29.3
2005-05-26 07:37:39 51°21.001 2°34.142 324.2 14.4 316 29.1
2005-05-26 07:37:44 51°21.014 2°34.122 325.2 14.4 316 29
2005-05-26 07:37:49 51°21.029 2°34.1 325.8 14.4 317 28.8
2005-05-26 07:37:54 51°21.044 2°34.08 326.9 14.3 318 28.7
2005-05-26 07:37:59 51°21.061 2°34.058 328.4 14.3 319 28.6
2005-05-26 07:38:04 51°21.075 2°34.04 329.8 14.3 321 28.5
2005-05-26 07:38:08 51°21.089 2°34.023 331.6 14.3 321 28.5
2005-05-26 07:38:14 51°21.107 2°34.003 333.4 14.3 321 28.3
2005-05-26 07:38:19 51°21.125 2°33.983 334.5 14.3 326 28.3
2005-05-26 07:38:24 51°21.14 2°33.967 335.3 14.3 326 28.5
2005-05-26 07:38:29 51°21.156 2°33.95 335.8 14.3 326 28.7
2005-05-26 07:38:34 51°21.173 2°33.932 336.2 14.3 326 28.9
2005-05-26 07:38:39 51°21.191 2°33.913 336.6 14.3 326 29
2005-05-26 07:38:44 51°21.206 2°33.897 336.7 14.3 327 29.2
2005-05-26 07:38:49 51°21.222 2°33.88 336.8 14.3 326 30.1
2005-05-26 07:38:54 51°21.239 2°33.862 336.7 14.2 326 30.1
2005-05-26 07:38:59 51°21.255 2°33.845 336.7 14.2 326 30.4
2005-05-26 07:39:04 51°21.272 2°33.827 336.5 14.3 326 30.3
2005-05-26 07:39:08 51°21.286 2°33.812 336.6 14.3 326 29.8
2005-05-26 07:39:14 51°21.305 2°33.793 336.6 14.3 326 29.9
2005-05-26 07:39:18 51°21.321 2°33.779 336.8 14.2 330 29.7
2005-05-26 07:39:24 51°21.342 2°33.763 340 14.2 330 29.8
2005-05-26 07:39:29 51°21.358 2°33.751 342.8 14.2 330 29.4
2005-05-26 07:39:34 51°21.376 2°33.739 345 14.2 330 29.5
2005-05-26 07:39:39 51°21.393 2°33.727 346.6 14.2 330 29.6
2005-05-26 07:39:44 51°21.412 2°33.715 347.6 14 337 29.4
2005-05-26 07:39:49 51°21.431 2°33.703 348.6 14 338 29.6
2005-05-26 07:39:54 51°21.448 2°33.693 349.1 14 338 29.3
2005-05-26 07:39:59 51°21.465 2°33.681 349 14 338 29.5
2005-05-26 07:40:04 51°21.484 2°33.669 348.7 14 338 29.2
2005-05-26 07:40:09 51°21.502 2°33.657 348.6 14.1 338 29
2005-05-26 07:40:14 51°21.52 2°33.645 348.6 14.1 338 28.2
2005-05-26 07:40:19 51°21.54 2°33.633 348.8 14.1 338 27.4
2005-05-26 07:40:24 51°21.557 2°33.623 349 14.1 338 27.5
2005-05-26 07:40:29 51°21.576 2°33.609 349.1 14.1 339 27.3
2005-05-26 07:40:34 51°21.593 2°33.599 348.9 14.1 339 27.3
2005-05-26 07:40:39 51°21.613 2°33.586 348.6 14.1 339 26.6
2005-05-26 07:40:44 51°21.629 2°33.575 348.5 14.2 338 26.2
2005-05-26 07:40:48 51°21.646 2°33.565 348.7 14.2 338 25.6
2005-05-26 07:40:54 51°21.666 2°33.552 349.1 14.2 339 24.1
2005-05-26 07:40:59 51°21.684 2°33.541 349.1 14.2 338 24
2005-05-26 07:41:04 51°21.705 2°33.529 349 14.2 338 24
2005-05-26 07:41:08 51°21.72 2°33.52 348.8 14.2 338 23.7
2005-05-26 07:41:14 51°21.74 2°33.506 348.3 14.2 338 23.6
2005-05-26 07:41:19 51°21.76 2°33.494 348.2 14.2 338 23.4
2005-05-26 07:41:24 51°21.776 2°33.483 348.3 14.2 338 23.2
2005-05-26 07:41:28 51°21.793 2°33.473 348.6 14.2 339 22.9
2005-05-26 07:41:34 51°21.813 2°33.461 348.8 14.2 339 22.7
2005-05-26 07:41:39 51°21.833 2°33.447 348.3 14.2 338 22.1
2005-05-26 07:41:44 51°21.85 2°33.436 347.9 14.3 338 21.4
2005-05-26 07:41:49 51°21.867 2°33.423 347.8 14.2 337 21.5
2005-05-26 07:41:54 51°21.885 2°33.411 347.7 14.2 338 21.8
2005-05-26 07:41:59 51°21.904 2°33.399 347.9 14.2 338 21.9
2005-05-26 07:42:04 51°21.922 2°33.388 348.2 14.2 338 21.7
2005-05-26 07:42:09 51°21.942 2°33.375 348.5 14.2 338 21.2
2005-05-26 07:42:14 51°21.959 2°33.364 348.3 14.3 338 20.7
2005-05-26 07:42:19 51°21.979 2°33.35 348.1 14.3 337 21.3
2005-05-26 07:42:24 51°21.995 2°33.339 347.5 14.4 338 21.6
2005-05-26 07:42:29 51°22.014 2°33.326 347.6 14.4 338 22.6
2005-05-26 07:42:34 51°22.031 2°33.313 347.6 14.3 337 23.2
2005-05-26 07:42:39 51°22.051 2°33.297 346.1 14.4 334 23.6
2005-05-26 07:42:44 51°22.067 2°33.283 344.3 14.4 334 24.5
2005-05-26 07:42:49 51°22.084 2°33.268 342.9 14.5 332 25.2
2005-05-26 07:42:53 51°22.098 2°33.256 341.8 14.5 332 26.3
2005-05-26 07:42:59 51°22.119 2°33.236 340.8 14.5 331 26.7
2005-05-26 07:43:04 51°22.137 2°33.22 340.2 14.5 331 27.5
2005-05-26 07:43:09 51°22.156 2°33.202 339.6 14.5 331 27.8
2005-05-26 07:43:12 51°22.166 2°33.192 339.4 14.5 330 28
2005-05-26 07:43:19 51°22.191 2°33.169 339.2 14.5 330 27.8
2005-05-26 07:43:24 51°22.206 2°33.154 339.2 14.5 330 28
2005-05-26 07:43:28 51°22.221 2°33.137 338.3 14.6 329 28.3
2005-05-26 07:43:34 51°22.238 2°33.115 334.6 14.6 323 28.7
2005-05-26 07:43:38 51°22.252 2°33.095 331.6 14.7 319 28.6
2005-05-26 07:43:44 51°22.267 2°33.069 327.4 14.7 315 28.8
2005-05-26 07:43:49 51°22.281 2°33.045 323.9 14.6 314 28.8
2005-05-26 07:43:54 51°22.295 2°33.021 321.4 14.7 312 28.6
2005-05-26 07:43:59 51°22.31 2°32.994 319.5 14.8 312 28.8
2005-05-26 07:44:04 51°22.321 2°32.971 318.1 14.8 310 28.8